Time;durP1;ratioP1;P1;durP2;ratioP2;P2;SDS_P1;SDS_P2;PMS_P1;PMS_P2;Temp;Humidity;BMP_temperature;BMP_pressure;BME280_temperature;BME280_humidity;BME280_pressure;Samples;Min_cycle;Max_cycle;Signal;HPM_P1;HPM_P2
2022/04/04 09:44:13;;;;;;;6.35;2.85;;;;;;;3.78;50.64;99144.09;5110826;27;20358;-85
2022/04/04 09:46:44;;;;;;;4.72;3.60;;;;;;;3.91;50.62;99143.78;5108018;28;20397;-86
2022/04/04 09:49:13;;;;;;;7.65;4.40;;;;;;;4.00;50.65;99142.09;5090296;28;20048;-85
2022/04/04 09:51:42;;;;;;;9.27;5.05;;;;;;;4.32;51.63;99147.16;5111609;27;20051;-85
2022/04/04 09:54:11;;;;;;;5.53;3.60;;;;;;;4.34;49.30;99141.63;5131243;27;20043;-86
2022/04/04 09:56:38;;;;;;;5.22;3.65;;;;;;;4.28;50.37;99117.97;5130488;27;20047;-86
2022/04/04 09:59:05;;;;;;;6.30;4.07;;;;;;;4.29;50.11;99135.81;5131469;27;20457;-86
2022/04/04 10:01:34;;;;;;;8.90;4.30;;;;;;;4.26;50.67;99123.50;5130406;27;20102;-86
2022/04/04 10:04:02;;;;;;;5.07;3.42;;;;;;;4.42;50.28;99118.34;5111568;27;20044;-85
2022/04/04 10:06:31;;;;;;;5.60;3.65;;;;;;;4.47;49.93;99122.44;5113692;28;20159;-85
2022/04/04 10:08:59;;;;;;;5.68;3.80;;;;;;;4.27;50.03;99094.75;5109788;27;20051;-86
2022/04/04 10:11:28;;;;;;;6.88;3.75;;;;;;;4.60;48.07;99118.41;5109083;28;20462;-86
2022/04/04 10:13:56;;;;;;;5.47;3.40;;;;;;;4.66;47.29;99108.06;5109095;28;20055;-87
2022/04/04 10:16:23;;;;;;;5.05;3.78;;;;;;;4.48;48.84;99087.28;5107575;28;20052;-86
2022/04/04 10:18:54;;;;;;;5.57;3.25;;;;;;;4.46;47.80;99105.44;5108991;28;20047;-86
2022/04/04 10:21:21;;;;;;;6.72;3.33;;;;;;;4.42;48.03;99101.34;5108844;28;20055;-86
2022/04/04 10:23:49;;;;;;;4.90;3.03;;;;;;;4.32;46.18;99084.38;5108183;27;20047;-86
2022/04/04 10:26:16;;;;;;;4.05;3.15;;;;;;;4.60;47.69;99087.97;5108598;27;20070;-86
2022/04/04 10:28:46;;;;;;;4.38;3.20;;;;;;;4.83;46.85;99091.09;5109140;27;20047;-86
2022/04/04 10:31:15;;;;;;;5.38;3.40;;;;;;;4.98;47.13;99091.44;5108576;27;20058;-86
2022/04/04 10:33:42;;;;;;;7.35;3.25;;;;;;;5.04;46.54;99069.28;5106052;27;20402;-86
2022/04/04 10:36:13;;;;;;;3.83;2.67;;;;;;;5.10;46.48;99092.09;5107889;28;20048;-86
2022/04/04 10:38:55;;;;;;;4.03;3.20;;;;;;;5.29;48.31;99077.63;5108112;28;20040;-86
2022/04/04 10:41:24;;;;;;;5.88;3.95;;;;;;;5.22;46.64;99058.53;5108723;28;20052;-87
2022/04/04 10:43:52;;;;;;;5.22;3.40;;;;;;;5.20;47.83;99048.91;5107986;27;20075;-87
2022/04/04 10:46:20;;;;;;;4.80;3.28;;;;;;;5.26;47.35;99069.84;5108312;27;20428;-87
2022/04/04 10:48:50;;;;;;;4.45;3.53;;;;;;;5.11;46.66;99042.59;5099890;27;20048;-87
2022/04/04 10:51:19;;;;;;;7.82;3.25;;;;;;;5.20;48.03;99040.81;5101385;28;20528;-87
2022/04/04 10:53:49;;;;;;;4.40;2.92;;;;;;;5.13;45.76;99046.84;5096903;27;20036;-87
2022/04/04 10:56:19;;;;;;;4.60;3.17;;;;;;;4.97;45.17;99046.66;5094028;28;20058;-87
2022/04/04 10:58:46;;;;;;;4.40;3.40;;;;;;;4.90;46.88;99043.72;5094759;28;20047;-86
2022/04/04 11:01:16;;;;;;;4.20;3.25;;;;;;;5.17;47.42;99046.53;5094292;28;20079;-85
2022/04/04 11:03:56;;;;;;;;;;;;;;;5.36;47.03;99035.59;5094748;28;20044;-86
2022/04/04 11:09:26;;;;;;;7.43;3.53;;;;;;;5.75;46.73;99031.69;5092669;28;20050;-85
2022/04/04 11:11:55;;;;;;;3.83;2.90;;;;;;;5.52;45.82;99002.50;5094516;28;20449;-86
2022/04/04 11:14:54;;;;;;;4.38;3.20;;;;;;;5.59;45.79;98997.34;5091828;28;20052;-86
2022/04/04 11:17:30;;;;;;;5.05;3.25;;;;;;;5.99;49.25;99004.03;5084389;28;20040;-87
2022/04/04 11:20:04;;;;;;;9.07;4.38;;;;;;;5.57;46.80;99011.00;5093319;28;20055;-87
2022/04/04 11:22:34;;;;;;;4.10;2.95;;;;;;;5.45;47.72;98986.13;5093851;28;20059;-87
2022/04/04 11:25:04;;;;;;;4.43;3.00;;;;;;;5.75;47.32;98984.00;5095196;28;20131;-87
2022/04/04 11:27:33;;;;;;;4.25;3.10;;;;;;;5.78;46.83;98986.38;5094345;28;20084;-87
2022/04/04 11:30:00;;;;;;;5.00;3.57;;;;;;;6.05;48.26;98991.78;5089726;28;20048;-87
2022/04/04 11:32:31;;;;;;;4.38;3.50;;;;;;;6.03;47.84;98970.34;5100921;28;20836;-88
2022/04/04 11:35:01;;;;;;;4.50;3.40;;;;;;;6.09;46.96;98964.31;5103371;28;20075;-88
2022/04/04 11:37:29;;;;;;;5.35;3.67;;;;;;;5.85;46.62;98979.31;5100358;28;20056;-87
2022/04/04 11:40:13;;;;;;;4.95;3.28;;;;;;;5.76;47.00;98942.50;5093006;28;20053;-87
2022/04/04 11:42:41;;;;;;;4.05;2.88;;;;;;;6.16;49.15;98949.16;5095739;28;20075;-87
2022/04/04 11:45:09;;;;;;;7.38;3.50;;;;;;;6.02;46.91;98965.94;5093629;28;20055;-87
2022/04/04 11:47:39;;;;;;;5.00;3.63;;;;;;;5.88;46.08;98951.16;5093835;28;20059;-87
2022/04/04 11:50:07;;;;;;;4.68;3.40;;;;;;;6.09;47.33;98939.19;5093549;28;20052;-87
2022/04/04 11:52:45;;;;;;;10.20;3.20;;;;;;;6.28;45.67;98932.66;5091905;28;20054;-87
2022/04/04 11:55:17;;;;;;;4.20;2.75;;;;;;;6.27;45.46;98939.09;5089016;28;20074;-88
2022/04/04 11:57:46;;;;;;;5.13;3.20;;;;;;;5.96;45.90;98943.13;5084045;28;20056;-87
2022/04/04 12:00:20;;;;;;;6.88;3.67;;;;;;;6.43;49.17;98935.56;5093575;28;20517;-87
2022/04/04 12:02:48;;;;;;;6.75;3.33;;;;;;;6.41;46.06;98930.34;5088794;28;20051;-88
2022/04/04 12:05:14;;;;;;;5.13;3.20;;;;;;;6.63;46.94;98925.34;5090016;28;20047;-87
2022/04/04 12:07:41;;;;;;;5.20;2.83;;;;;;;6.57;45.41;98918.75;5093024;28;20446;-87
2022/04/04 12:10:09;;;;;;;4.35;2.75;;;;;;;6.79;45.17;98916.41;5093323;28;20056;-88
2022/04/04 12:12:38;;;;;;;4.10;2.85;;;;;;;6.64;44.45;98914.38;5091506;28;20052;-87
2022/04/04 12:15:05;;;;;;;5.85;3.15;;;;;;;6.54;45.83;98881.28;5092995;28;20058;-86
2022/04/04 12:17:33;;;;;;;6.07;3.17;;;;;;;6.82;46.40;98910.69;5093134;28;20447;-86
2022/04/04 12:20:00;;;;;;;5.35;3.55;;;;;;;6.60;44.88;98904.91;5092724;28;20143;-87
2022/04/04 12:25:18;;;;;;;3.53;2.83;;;;;;;6.56;44.95;98873.84;5087802;28;20050;-86
2022/04/04 12:27:59;;;;;;;3.88;2.50;;;;;;;6.90;44.67;98883.69;5080659;28;20047;-86
2022/04/04 12:30:31;;;;;;;3.22;2.88;;;;;;;6.87;44.60;98881.31;5092429;28;20052;-86
2022/04/04 12:33:10;;;;;;;9.60;3.85;;;;;;;7.11;45.13;98875.06;5092017;28;20479;-86
2022/04/04 12:35:42;;;;;;;5.38;2.92;;;;;;;7.50;45.35;98838.31;5092531;28;20052;-86
2022/04/04 12:38:09;;;;;;;6.47;3.45;;;;;;;7.40;43.84;98833.09;5092612;28;20080;-87
2022/04/04 12:40:37;;;;;;;4.85;3.10;;;;;;;7.22;44.34;98849.53;5091824;28;20052;-87
2022/04/04 12:43:08;;;;;;;3.80;2.88;;;;;;;7.16;45.48;98831.31;5090138;28;20447;-86
2022/04/04 12:45:45;;;;;;;4.47;3.22;;;;;;;7.43;46.80;98830.06;5092080;28;20072;-86
2022/04/04 12:48:11;;;;;;;4.53;2.55;;;;;;;7.42;44.35;98842.75;5092514;28;20082;-86
2022/04/04 12:50:40;;;;;;;3.55;2.92;;;;;;;7.26;44.70;98816.56;5092221;28;20048;-86
2022/04/04 12:53:08;;;;;;;5.72;3.03;;;;;;;7.54;45.97;98828.84;5090057;28;20101;-86
2022/04/04 12:55:37;;;;;;;3.20;2.55;;;;;;;7.39;44.88;98820.59;5090287;28;20160;-86
2022/04/04 12:58:20;;;;;;;5.13;3.08;;;;;;;7.33;44.05;98800.53;5094548;28;20044;-86
2022/04/04 13:00:47;;;;;;;4.22;3.40;;;;;;;7.53;45.42;98817.19;5092265;28;20057;-86
2022/04/04 13:03:19;;;;;;;3.53;2.75;;;;;;;7.47;44.17;98817.03;5091633;28;20054;-88
2022/04/04 13:05:48;;;;;;;5.18;3.05;;;;;;;7.56;43.99;98810.59;5092169;28;20052;-86
2022/04/04 13:08:18;;;;;;;4.63;3.10;;;;;;;7.95;43.65;98807.06;5088191;28;20049;-86
2022/04/04 13:11:01;;;;;;;4.05;2.95;;;;;;;7.71;41.90;98800.72;5080520;28;20044;-86
2022/04/04 13:13:29;;;;;;;2.53;2.22;;;;;;;8.08;45.41;98790.22;5091274;28;20480;-85
2022/04/04 13:15:56;;;;;;;5.38;3.40;;;;;;;8.00;43.35;98796.53;5090664;28;20276;-86
2022/04/04 13:18:23;;;;;;;4.72;3.45;;;;;;;7.97;44.63;98792.28;5091417;28;20048;-86
2022/04/04 13:20:50;;;;;;;5.32;3.78;;;;;;;8.06;44.31;98776.03;5092057;28;20479;-86
2022/04/04 13:23:16;;;;;;;5.15;3.13;;;;;;;7.83;43.41;98781.38;5085851;28;20508;-86
2022/04/04 13:25:45;;;;;;;3.17;2.38;;;;;;;7.82;43.32;98782.41;5091452;28;20126;-86
2022/04/04 13:28:11;;;;;;;5.07;3.40;;;;;;;7.95;44.49;98774.56;5091836;28;20059;-86
2022/04/04 13:30:40;;;;;;;4.10;3.00;;;;;;;8.14;43.81;98782.25;5087759;28;20063;-86
2022/04/04 13:33:07;;;;;;;4.55;3.38;;;;;;;8.07;44.22;98761.44;5093111;28;20107;-87
2022/04/04 13:35:34;;;;;;;4.70;2.97;;;;;;;8.40;44.14;98743.13;5093078;28;20139;-86
2022/04/04 13:38:01;;;;;;;4.72;3.38;;;;;;;8.36;43.29;98768.88;5092361;28;20044;-87
2022/04/04 13:40:28;;;;;;;5.25;3.60;;;;;;;8.45;44.27;98732.63;5091642;28;20128;-87
2022/04/04 13:42:54;;;;;;;5.70;3.80;;;;;;;8.56;42.44;98749.47;5091338;28;20600;-86
2022/04/04 13:45:21;;;;;;;6.50;3.65;;;;;;;8.37;44.17;98746.19;5091825;28;20261;-87
2022/04/04 13:47:50;;;;;;;7.40;4.93;;;;;;;8.35;44.55;98734.69;5094288;28;20094;-86
2022/04/04 13:50:17;;;;;;;7.65;4.25;;;;;;;8.27;45.30;98726.63;5094745;28;20081;-86
2022/04/04 13:52:43;;;;;;;5.68;3.80;;;;;;;8.43;44.11;98733.78;5091221;28;20633;-86
2022/04/04 13:55:11;;;;;;;5.50;4.10;;;;;;;8.43;45.23;98734.63;5095207;28;20056;-86
2022/04/04 13:57:37;;;;;;;5.13;3.45;;;;;;;8.57;45.39;98722.19;5094404;28;20130;-86
2022/04/04 14:00:06;;;;;;;6.05;4.15;;;;;;;8.41;44.28;98733.13;5094400;28;20048;-86
2022/04/04 14:02:32;;;;;;;5.20;3.33;;;;;;;8.40;45.32;98736.84;5085676;28;20135;-86
2022/04/04 14:05:00;;;;;;;4.95;3.60;;;;;;;8.06;44.31;98736.25;5093191;28;20127;-85
2022/04/04 14:07:27;;;;;;;4.97;3.65;;;;;;;7.87;44.49;98732.13;5092446;28;20055;-87
2022/04/04 14:09:54;;;;;;;7.70;4.10;;;;;;;7.55;44.36;98719.63;5091823;28;20048;-85
2022/04/04 14:12:22;;;;;;;7.63;3.08;;;;;;;7.72;45.54;98726.66;5092894;28;20044;-86
2022/04/04 14:14:49;;;;;;;6.45;3.45;;;;;;;7.77;44.32;98715.28;5087173;28;20048;-85
2022/04/04 14:17:17;;;;;;;5.72;4.05;;;;;;;7.77;45.80;98718.00;5095287;28;20534;-85
2022/04/04 14:19:43;;;;;;;6.15;3.35;;;;;;;7.93;46.31;98722.47;5094749;28;20056;-85
2022/04/04 14:22:13;;;;;;;7.78;4.32;;;;;;;7.88;45.76;98724.88;5090697;28;20136;-85
2022/04/04 14:24:41;;;;;;;6.43;4.25;;;;;;;7.74;45.40;98718.38;5091222;28;20062;-86
2022/04/04 14:27:07;;;;;;;5.75;4.32;;;;;;;7.74;46.09;98711.06;5091622;28;20074;-85
2022/04/04 14:29:34;;;;;;;6.03;3.55;;;;;;;7.58;46.47;98714.69;5087669;28;20492;-85
2022/04/04 14:32:01;;;;;;;5.35;4.10;;;;;;;7.71;46.77;98713.31;5085102;28;20054;-86
2022/04/04 14:34:28;;;;;;;7.00;4.57;;;;;;;7.52;46.25;98690.22;5096110;28;20082;-86
2022/04/04 14:36:54;;;;;;;4.95;3.83;;;;;;;7.73;45.48;98706.69;5108141;28;20123;-86
2022/04/04 14:39:23;;;;;;;5.30;3.55;;;;;;;7.65;45.98;98695.91;5099556;28;20414;-86
2022/04/04 14:41:52;;;;;;;7.03;4.63;;;;;;;7.71;47.50;98708.72;5097698;28;20051;-89
2022/04/04 14:44:19;;;;;;;6.13;4.05;;;;;;;7.53;47.16;98708.16;5080631;28;20056;-87
2022/04/04 14:46:46;;;;;;;5.85;3.83;;;;;;;7.29;47.95;98707.22;5087329;28;20044;-90
2022/04/04 14:49:14;;;;;;;5.80;4.20;;;;;;;7.19;47.50;98695.78;5091051;28;20072;-86
2022/04/04 14:51:44;;;;;;;5.80;4.20;;;;;;;7.37;49.47;98701.78;5088523;28;20135;-86
2022/04/04 14:54:10;;;;;;;6.32;3.95;;;;;;;6.97;47.54;98692.81;5087435;28;20047;-85
2022/04/04 14:56:39;;;;;;;5.22;4.13;;;;;;;6.96;48.03;98684.88;5087675;28;20490;-86
2022/04/04 14:59:06;;;;;;;6.70;4.57;;;;;;;6.94;47.94;98690.47;5085296;28;20063;-85
2022/04/04 15:01:33;;;;;;;9.48;4.47;;;;;;;6.91;48.04;98694.34;5085370;28;20483;-86
2022/04/04 15:04:00;;;;;;;6.70;4.20;;;;;;;6.60;47.94;98678.03;5074012;28;20049;-89
2022/04/04 15:06:26;;;;;;;6.00;3.63;;;;;;;6.82;49.04;98678.31;5085073;28;20499;-85
2022/04/04 15:08:56;;;;;;;5.78;4.10;;;;;;;6.74;48.90;98673.78;5095119;27;20040;-84
2022/04/04 15:11:23;;;;;;;8.35;3.25;;;;;;;6.62;48.35;98675.16;5095652;28;20052;-85
2022/04/04 15:13:51;;;;;;;6.38;3.92;;;;;;;6.61;47.73;98658.13;5090764;28;20127;-85
2022/04/04 15:16:19;;;;;;;6.53;3.78;;;;;;;6.56;48.01;98679.38;5092733;28;20467;-85
2022/04/04 15:18:45;;;;;;;5.30;4.05;;;;;;;6.64;48.46;98670.41;5096809;28;20399;-86
2022/04/04 15:21:12;;;;;;;7.68;4.55;;;;;;;6.70;49.15;98676.00;5092136;28;20210;-85
2022/04/04 15:23:39;;;;;;;4.45;3.45;;;;;;;6.68;49.15;98667.19;5078238;28;20068;-87
2022/04/04 15:26:06;;;;;;;6.88;4.18;;;;;;;6.52;48.22;98662.69;5085859;28;20040;-86
2022/04/04 15:28:33;;;;;;;7.10;4.47;;;;;;;6.59;50.00;98662.81;5092395;28;20123;-85
2022/04/04 15:31:05;;;;;;;5.55;3.58;;;;;;;6.47;49.46;98645.31;5085696;28;20075;-86
2022/04/04 15:33:32;;;;;;;6.68;4.20;;;;;;;6.53;50.61;98655.41;5085015;28;20048;-86
2022/04/04 15:35:59;;;;;;;5.97;3.92;;;;;;;6.47;48.65;98656.09;5077150;28;20083;-86
2022/04/04 15:38:26;;;;;;;8.45;4.15;;;;;;;6.47;49.71;98651.53;5083544;28;20044;-86
2022/04/04 15:40:53;;;;;;;8.35;4.75;;;;;;;6.53;50.44;98648.19;5077057;28;20478;-85
2022/04/04 15:43:20;;;;;;;5.80;3.75;;;;;;;6.59;50.30;98668.22;5088028;28;20044;-86
2022/04/04 15:45:46;;;;;;;5.28;4.03;;;;;;;6.45;49.06;98652.75;5088590;28;20040;-86
2022/04/04 15:48:16;;;;;;;5.22;3.65;;;;;;;6.36;48.74;98652.72;5084064;28;20044;-86
2022/04/04 15:50:43;;;;;;;5.30;3.10;;;;;;;6.40;48.07;98636.19;5079126;28;20049;-86
2022/04/04 15:53:13;;;;;;;7.75;4.00;;;;;;;6.34;48.69;98649.38;5086673;28;20402;-86
2022/04/04 15:55:39;;;;;;;7.28;3.85;;;;;;;6.37;50.19;98648.19;5081991;28;20055;-86
2022/04/04 15:58:06;;;;;;;6.65;4.32;;;;;;;6.27;48.86;98636.72;5092648;28;20387;-86
2022/04/04 16:00:37;;;;;;;5.10;3.90;;;;;;;6.28;50.12;98635.69;5085005;28;20044;-86
2022/04/04 16:03:04;;;;;;;5.75;3.55;;;;;;;6.19;50.40;98613.28;5087263;28;20040;-85
2022/04/04 16:05:33;;;;;;;10.70;3.90;;;;;;;6.34;50.98;98643.16;5076414;28;20056;-86
2022/04/04 16:07:59;;;;;;;4.38;3.08;;;;;;;6.32;50.59;98635.22;5090874;28;20055;-86
2022/04/04 16:10:26;;;;;;;5.97;3.50;;;;;;;6.27;50.86;98642.13;5082673;28;20049;-86
2022/04/04 16:12:52;;;;;;;5.95;4.15;;;;;;;6.20;49.95;98629.31;5075400;28;20052;-86
2022/04/04 16:15:19;;;;;;;4.28;3.83;;;;;;;6.29;50.97;98640.97;5072855;28;20145;-86
2022/04/04 16:17:46;;;;;;;7.95;3.70;;;;;;;6.16;51.09;98616.34;5077714;28;20048;-86
2022/04/04 16:20:13;;;;;;;5.25;3.63;;;;;;;6.17;51.59;98635.06;5074873;28;20049;-87
2022/04/04 16:22:43;;;;;;;6.97;3.80;;;;;;;6.20;51.57;98623.06;5072496;28;20044;-87
2022/04/04 16:25:10;;;;;;;8.23;4.10;;;;;;;6.24;52.16;98626.28;5076151;28;20277;-86
2022/04/04 16:27:37;;;;;;;7.93;3.60;;;;;;;6.12;50.80;98629.31;5080598;28;20066;-87
2022/04/04 16:30:05;;;;;;;8.43;4.35;;;;;;;6.14;51.70;98637.22;5089956;28;20074;-86
2022/04/04 16:32:32;;;;;;;5.53;3.03;;;;;;;6.15;51.44;98638.94;5083715;28;20131;-86
2022/04/04 16:34:59;;;;;;;6.88;3.45;;;;;;;6.08;50.48;98627.13;5088103;28;20113;-86
2022/04/04 16:37:29;;;;;;;5.20;4.10;;;;;;;6.13;51.67;98631.00;5082916;28;20443;-87
2022/04/04 16:39:59;;;;;;;6.97;3.75;;;;;;;6.09;50.99;98632.34;5091523;28;20135;-86
2022/04/04 16:42:30;;;;;;;5.28;3.35;;;;;;;6.08;50.86;98636.06;5081744;28;20456;-86
2022/04/04 16:44:59;;;;;;;6.63;3.85;;;;;;;6.07;51.78;98628.13;5082501;28;20052;-86
2022/04/04 16:47:26;;;;;;;10.25;3.85;;;;;;;6.02;50.97;98626.78;5087477;28;20146;-87
2022/04/04 16:49:53;;;;;;;7.80;4.25;;;;;;;6.02;50.46;98615.13;5084303;28;20053;-87
2022/04/04 16:52:20;;;;;;;5.40;4.00;;;;;;;6.16;52.06;98638.75;5079406;28;20044;-86
2022/04/04 16:54:46;;;;;;;6.22;3.78;;;;;;;6.11;51.31;98624.94;5076403;28;20087;-85
2022/04/04 16:57:17;;;;;;;8.35;3.63;;;;;;;6.02;51.12;98621.41;5089842;28;20052;-85
2022/04/04 16:59:44;;;;;;;5.60;3.53;;;;;;;5.95;50.91;98619.50;5083905;28;20048;-86
2022/04/04 17:02:11;;;;;;;6.05;3.90;;;;;;;6.11;50.76;98643.84;5089393;28;20398;-86
2022/04/04 17:04:37;;;;;;;5.03;4.00;;;;;;;6.01;51.50;98626.97;5081273;28;20645;-86
2022/04/04 17:07:04;;;;;;;5.07;3.55;;;;;;;6.15;51.67;98633.53;5089502;28;20055;-87
2022/04/04 17:09:33;;;;;;;6.28;3.53;;;;;;;6.06;51.81;98616.50;5072399;28;20056;-85
2022/04/04 17:12:00;;;;;;;5.00;3.67;;;;;;;6.13;51.76;98627.47;5083418;28;20052;-86
2022/04/04 17:14:28;;;;;;;10.82;4.70;;;;;;;6.14;51.90;98629.13;5072395;28;20044;-85
2022/04/04 17:16:55;;;;;;;5.45;3.78;;;;;;;6.15;50.86;98634.38;5086840;28;20406;-86
2022/04/04 17:19:25;;;;;;;7.40;3.83;;;;;;;6.09;51.08;98621.56;5083795;28;20056;-84
2022/04/04 17:21:51;;;;;;;4.53;3.60;;;;;;;6.11;51.08;98634.88;5077972;28;20501;-86
2022/04/04 17:24:18;;;;;;;5.10;3.42;;;;;;;6.12;51.19;98623.91;5078592;28;20053;-87
2022/04/04 17:26:46;;;;;;;5.28;4.18;;;;;;;6.05;51.33;98630.16;5069331;28;20506;-87
2022/04/04 17:29:12;;;;;;;9.98;4.65;;;;;;;6.11;51.15;98633.03;5085511;28;20224;-88
2022/04/04 17:31:41;;;;;;;6.53;3.92;;;;;;;6.02;51.85;98645.69;5070264;28;20049;-86
2022/04/04 17:34:10;;;;;;;5.82;3.72;;;;;;;6.02;52.06;98632.19;5070098;28;20052;-87
2022/04/04 17:36:40;;;;;;;4.88;3.90;;;;;;;6.01;52.94;98635.06;5068905;28;20058;-86
2022/04/04 17:39:06;;;;;;;5.03;3.83;;;;;;;5.94;52.30;98625.91;5079405;28;20052;-86
2022/04/04 17:41:33;;;;;;;8.48;5.25;;;;;;;5.95;52.90;98633.84;5087812;28;20302;-86
2022/04/04 17:44:01;;;;;;;7.22;4.95;;;;;;;5.96;53.92;98638.22;5077080;28;20050;-86
2022/04/04 17:46:30;;;;;;;7.97;4.38;;;;;;;5.72;52.96;98624.72;5087931;28;20036;-84
2022/04/04 17:48:58;;;;;;;9.18;5.00;;;;;;;5.82;53.12;98649.69;5089286;28;20054;-86
2022/04/04 17:51:25;;;;;;;6.35;4.60;;;;;;;5.76;53.74;98629.59;5075778;28;20423;-86
2022/04/04 17:53:52;;;;;;;8.45;4.70;;;;;;;5.73;53.69;98638.03;5085555;28;20056;-89
2022/04/04 17:56:20;;;;;;;5.13;3.53;;;;;;;5.63;54.01;98629.25;5078560;28;20483;-86
2022/04/04 17:58:47;;;;;;;6.82;4.65;;;;;;;5.67;54.73;98642.25;5088294;28;20059;-85
2022/04/04 18:01:14;;;;;;;11.45;4.28;;;;;;;5.67;54.80;98644.97;5070477;28;20772;-86
2022/04/04 18:03:43;;;;;;;6.00;3.85;;;;;;;5.68;54.53;98648.50;5072953;28;20044;-89
2022/04/04 18:06:11;;;;;;;7.70;4.53;;;;;;;5.56;55.84;98617.47;5091057;28;20051;-86
2022/04/04 18:08:38;;;;;;;7.97;4.45;;;;;;;5.49;57.24;98639.69;5081046;28;20151;-85
2022/04/04 18:11:06;;;;;;;7.40;4.80;;;;;;;5.45;57.69;98638.34;5082483;28;20058;-86
2022/04/04 18:13:33;;;;;;;6.88;4.07;;;;;;;5.29;58.66;98630.19;5084210;28;20220;-85
2022/04/04 18:16:00;;;;;;;8.90;5.20;;;;;;;5.36;59.66;98650.09;5084967;28;20057;-86
2022/04/04 18:18:27;;;;;;;3.17;2.88;;;;;;;5.34;58.26;98627.84;5080362;28;20102;-85
2022/04/04 18:20:54;;;;;;;9.10;4.35;;;;;;;5.38;58.91;98637.31;5091145;28;20139;-86
2022/04/04 18:23:22;;;;;;;6.53;4.57;;;;;;;5.29;58.80;98631.03;5093589;28;20054;-86
2022/04/04 18:25:49;;;;;;;7.30;4.63;;;;;;;5.38;58.71;98645.38;5073146;28;20118;-85
2022/04/04 18:28:16;;;;;;;4.68;4.10;;;;;;;5.29;59.81;98633.72;5084245;28;20871;-85
2022/04/04 18:30:43;;;;;;;9.23;4.63;;;;;;;5.26;60.21;98639.44;5076460;28;20044;-86
2022/04/04 18:33:10;;;;;;;7.15;5.03;;;;;;;5.19;61.09;98641.09;5080443;28;20364;-85
2022/04/04 18:35:37;;;;;;;7.88;4.40;;;;;;;5.17;62.59;98634.22;5083029;28;20040;-86
2022/04/04 18:38:04;;;;;;;9.20;4.40;;;;;;;5.18;62.53;98643.97;5082326;28;20090;-86
2022/04/04 18:40:32;;;;;;;6.93;4.90;;;;;;;5.07;63.69;98654.06;5082096;28;20044;-86
2022/04/04 18:42:59;;;;;;;9.32;4.97;;;;;;;4.99;64.64;98653.16;5083034;28;20051;-86
2022/04/04 18:45:28;;;;;;;6.85;5.07;;;;;;;5.06;65.01;98671.22;5081591;28;20044;-87
2022/04/04 18:47:54;;;;;;;8.10;4.82;;;;;;;5.05;65.43;98663.28;5077979;28;20053;-85
2022/04/04 18:50:22;;;;;;;8.85;5.28;;;;;;;5.06;66.06;98662.28;5091154;28;20066;-86
2022/04/04 18:52:49;;;;;;;6.90;4.88;;;;;;;4.98;65.81;98660.38;5086062;28;20488;-86
2022/04/04 18:55:15;;;;;;;9.23;5.75;;;;;;;4.98;66.15;98660.38;5082981;28;20048;-86
2022/04/04 18:57:43;;;;;;;7.40;5.63;;;;;;;4.96;66.10;98662.41;5091198;28;20044;-86
2022/04/04 19:00:12;;;;;;;7.88;5.13;;;;;;;4.88;65.13;98646.22;5084224;28;20087;-86
2022/04/04 19:02:39;;;;;;;7.07;5.07;;;;;;;4.97;65.15;98664.09;5079619;28;20406;-86
2022/04/04 19:05:07;;;;;;;8.55;5.40;;;;;;;4.99;64.83;98664.78;5077738;28;20052;-86
2022/04/04 19:07:34;;;;;;;8.85;5.93;;;;;;;4.93;65.39;98654.66;5088287;28;20071;-86
2022/04/04 19:10:01;;;;;;;6.45;4.93;;;;;;;4.99;65.18;98662.09;5077633;28;20044;-86
2022/04/04 19:12:27;;;;;;;9.80;5.65;;;;;;;4.98;65.50;98663.09;5088128;28;20376;-86
2022/04/04 19:14:56;;;;;;;12.07;5.07;;;;;;;5.00;64.61;98658.41;5087902;28;20525;-85
2022/04/04 19:17:23;;;;;;;7.38;5.22;;;;;;;5.05;64.49;98663.28;5086060;28;20051;-86
2022/04/04 19:19:49;;;;;;;9.27;5.03;;;;;;;5.10;64.07;98669.03;5081110;28;20105;-86
2022/04/04 19:22:19;;;;;;;7.63;5.10;;;;;;;5.06;65.46;98663.13;5073337;28;20143;-86
2022/04/04 19:24:46;;;;;;;11.40;5.68;;;;;;;5.07;65.57;98661.28;5086266;28;20056;-86
2022/04/04 19:27:13;;;;;;;7.72;5.22;;;;;;;5.04;66.94;98654.34;5084055;28;20527;-86
2022/04/04 19:29:43;;;;;;;7.53;4.65;;;;;;;4.90;65.43;98628.03;5088002;28;20044;-86
2022/04/04 19:32:11;;;;;;;;;;;;;;;5.08;64.59;98660.28;5089755;28;20147;-86
2022/04/04 19:34:38;;;;;;;8.15;5.30;;;;;;;4.90;64.43;98634.25;5091917;28;19923;-86
2022/04/04 19:37:06;;;;;;;9.50;6.03;;;;;;;5.04;64.06;98653.53;5086072;28;20048;-88
2022/04/04 19:39:33;;;;;;;10.60;5.28;;;;;;;5.00;64.53;98654.84;5084943;28;20044;-86
2022/04/04 19:42:06;;;;;;;9.27;6.00;;;;;;;5.07;64.75;98667.53;5100621;28;20465;-86
2022/04/04 19:44:33;;;;;;;10.00;5.70;;;;;;;4.94;66.52;98649.09;5075142;28;20419;-86
2022/04/04 19:47:00;;;;;;;6.03;3.92;;;;;;;4.87;67.43;98666.91;5085862;28;20087;-85
2022/04/04 19:49:29;;;;;;;9.45;5.03;;;;;;;4.80;68.67;98668.53;5070254;28;20049;-87
2022/04/04 19:51:55;;;;;;;4.77;3.83;;;;;;;4.73;69.66;98667.53;5071798;28;20047;-86
2022/04/04 19:54:22;;;;;;;5.50;3.97;;;;;;;4.63;71.04;98664.94;5087572;28;20048;-86
2022/04/04 19:56:49;;;;;;;6.28;4.35;;;;;;;4.64;71.53;98663.06;5089481;28;20040;-85
2022/04/04 19:59:16;;;;;;;8.40;5.63;;;;;;;4.57;73.12;98673.66;5089240;28;20499;-85
2022/04/04 20:01:43;;;;;;;14.45;5.85;;;;;;;4.63;73.74;98689.16;5082990;28;20123;-86
2022/04/04 20:04:09;;;;;;;11.25;6.63;;;;;;;4.49;74.66;98655.59;5087548;28;20442;-86
2022/04/04 20:06:38;;;;;;;9.70;5.38;;;;;;;4.58;74.58;98673.47;5092952;28;20473;-86
2022/04/04 20:09:06;;;;;;;10.25;6.20;;;;;;;4.49;74.92;98660.97;5084209;28;20082;-86
2022/04/04 20:11:32;;;;;;;7.68;5.57;;;;;;;4.54;74.92;98669.41;5074598;28;20476;-85
2022/04/04 20:14:02;;;;;;;7.85;5.18;;;;;;;4.56;74.41;98669.25;5085847;28;20483;-86
2022/04/04 20:16:29;;;;;;;11.15;6.50;;;;;;;4.57;72.85;98665.56;5080562;28;20055;-86
2022/04/04 20:18:57;;;;;;;7.93;5.45;;;;;;;4.62;73.26;98665.91;5082417;28;20083;-85
2022/04/04 20:21:24;;;;;;;8.38;4.68;;;;;;;4.60;72.61;98655.31;5088970;28;20055;-85
2022/04/04 20:23:52;;;;;;;7.68;5.18;;;;;;;4.53;72.76;98648.03;5084847;28;20040;-85
2022/04/04 20:26:21;;;;;;;6.13;5.18;;;;;;;4.48;72.65;98642.28;5081753;28;20044;-86
2022/04/04 20:28:47;;;;;;;9.82;5.40;;;;;;;4.64;72.80;98676.53;5081787;28;20121;-85
2022/04/04 20:31:14;;;;;;;9.90;5.53;;;;;;;4.64;73.46;98666.63;5097676;28;20115;-85
2022/04/04 20:33:41;;;;;;;6.68;4.28;;;;;;;4.62;72.76;98660.53;5084949;28;20060;-85
2022/04/04 20:36:08;;;;;;;8.48;5.38;;;;;;;4.58;73.04;98660.03;5094079;28;20544;-85
2022/04/04 20:38:35;;;;;;;9.52;5.70;;;;;;;4.60;74.15;98667.94;5091536;28;20052;-85
2022/04/04 20:41:03;;;;;;;8.73;5.65;;;;;;;4.57;74.53;98670.94;5083596;28;20148;-85
2022/04/04 20:43:32;;;;;;;9.75;5.57;;;;;;;4.53;75.21;98656.97;5083574;28;20503;-85
2022/04/04 20:46:00;;;;;;;7.35;4.97;;;;;;;4.55;75.97;98675.66;5082031;28;20411;-86
2022/04/04 20:48:26;;;;;;;8.77;5.82;;;;;;;4.49;77.93;98687.91;5083209;28;20048;-85
2022/04/04 20:50:53;;;;;;;6.70;4.88;;;;;;;4.28;80.91;98650.56;5089096;28;20044;-84
2022/04/04 20:53:20;;;;;;;9.35;6.10;;;;;;;4.27;82.59;98670.41;5089208;28;20491;-85
2022/04/04 20:55:47;;;;;;;9.45;6.18;;;;;;;4.17;84.71;98657.06;5074236;28;20045;-84
2022/04/04 20:58:16;;;;;;;8.25;6.25;;;;;;;4.25;86.26;98675.09;5077435;28;20376;-88
2022/04/04 21:00:42;;;;;;;8.38;6.35;;;;;;;4.18;88.45;98682.09;5082858;28;20054;-85
2022/04/04 21:03:09;;;;;;;8.13;6.10;;;;;;;4.10;89.26;98684.75;5073942;28;20048;-85
2022/04/04 21:05:36;;;;;;;10.95;6.90;;;;;;;4.12;92.39;98686.25;5082858;28;20631;-85
2022/04/04 21:08:02;;;;;;;11.82;7.07;;;;;;;4.08;92.22;98679.53;5080863;28;20044;-85
2022/04/04 21:10:29;;;;;;;8.82;6.13;;;;;;;4.00;92.92;98666.81;5073507;28;20083;-85
2022/04/04 21:12:56;;;;;;;8.95;6.13;;;;;;;4.04;92.82;98665.53;5079338;28;20118;-85
2022/04/04 21:15:24;;;;;;;8.45;6.03;;;;;;;3.98;93.41;98663.44;5077193;28;20495;-85
2022/04/04 21:17:50;;;;;;;12.20;5.85;;;;;;;3.88;93.80;98642.03;5081875;28;20406;-85
2022/04/04 21:20:17;;;;;;;8.73;6.30;;;;;;;3.96;95.22;98660.09;5082424;28;20078;-85
2022/04/04 21:22:44;;;;;;;8.68;5.65;;;;;;;3.92;94.13;98658.69;5085612;28;20090;-86
2022/04/04 21:25:14;;;;;;;14.40;7.07;;;;;;;3.94;94.48;98643.25;5080573;28;20044;-85
2022/04/04 21:27:40;;;;;;;;;;;;;;;3.95;93.49;98650.31;5079464;28;20051;-85
2022/04/04 21:30:08;;;;;;;8.93;6.45;;;;;;;3.84;94.21;98623.66;5073036;28;19920;-85
2022/04/04 21:32:36;;;;;;;8.85;6.28;;;;;;;4.00;95.89;98645.31;5087915;28;20117;-85
2022/04/04 21:35:03;;;;;;;9.00;6.13;;;;;;;3.99;92.35;98634.69;5084768;28;20048;-85